Time;durP1;ratioP1;P1;durP2;ratioP2;P2;SDS_P1;SDS_P2;PMS_P1;PMS_P2;Temp;Humidity;BMP_temperature;BMP_pressure;BME280_temperature;BME280_humidity;BME280_pressure;Samples;Min_cycle;Max_cycle;Signal;HPM_P1;HPM_P2
2023/08/20 00:00:46;;;;;;;9.07;3.30;;;;;;;-145.18;100.00;46644.78;5030999;28;20121;-61
2023/08/20 00:03:12;;;;;;;10.47;2.93;;;;;;;-145.18;100.00;46646.72;5029376;28;20029;-61
2023/08/20 00:05:39;;;;;;;7.73;3.43;;;;;;;-145.18;100.00;46644.78;5030616;28;20041;-61
2023/08/20 00:08:05;;;;;;;7.63;2.90;;;;;;;-145.18;100.00;46652.59;5032404;28;20728;-61
2023/08/20 00:10:31;;;;;;;11.80;3.57;;;;;;;-145.18;100.00;46642.81;5034892;28;20052;-61
2023/08/20 00:12:57;;;;;;;7.87;3.10;;;;;;;-145.18;100.00;46644.78;5033669;28;20128;-59
2023/08/20 00:15:26;;;;;;;7.50;3.10;;;;;;;-145.18;100.00;46640.88;5034215;28;20038;-59
2023/08/20 00:17:52;;;;;;;11.07;3.70;;;;;;;-145.18;100.00;46642.81;5034802;28;20120;-59
2023/08/20 00:20:18;;;;;;;10.80;2.97;;;;;;;-145.18;100.00;46642.81;5034725;28;20079;-60
2023/08/20 00:22:45;;;;;;;9.30;4.03;;;;;;;-145.18;100.00;46648.69;5034320;28;20045;-59
2023/08/20 00:25:14;;;;;;;13.50;3.47;;;;;;;-145.18;100.00;46640.88;5033899;28;20072;-59
2023/08/20 00:27:41;;;;;;;9.10;3.03;;;;;;;-145.18;100.00;46640.88;5034609;28;20060;-59
2023/08/20 00:30:08;;;;;;;9.20;4.07;;;;;;;-145.18;100.00;46644.78;5034107;28;20037;-60
2023/08/20 00:32:34;;;;;;;11.83;3.07;;;;;;;-145.18;100.00;46642.81;5034534;28;20064;-59
2023/08/20 00:34:59;;;;;;;7.30;3.30;;;;;;;-145.18;100.00;46640.88;5034473;28;20481;-59
2023/08/20 00:37:25;;;;;;;6.67;3.30;;;;;;;-145.18;100.00;46642.81;5034261;28;20103;-59
2023/08/20 00:39:50;;;;;;;15.57;3.37;;;;;;;-145.18;100.00;46642.81;5034251;28;20516;-59
2023/08/20 00:42:16;;;;;;;12.03;4.40;;;;;;;-145.18;100.00;46644.78;5032952;28;20099;-59
2023/08/20 00:44:44;;;;;;;12.83;3.63;;;;;;;-145.18;100.00;46644.78;5034253;28;20033;-59
2023/08/20 00:47:10;;;;;;;12.13;4.17;;;;;;;-145.18;100.00;46640.88;5034664;28;20117;-59
2023/08/20 00:49:36;;;;;;;6.43;3.33;;;;;;;-145.18;100.00;46642.81;5034410;28;20104;-60
2023/08/20 00:52:02;;;;;;;11.27;3.93;;;;;;;-145.18;100.00;46646.72;5034451;28;20425;-60
2023/08/20 00:54:28;;;;;;;7.27;3.53;;;;;;;-145.18;100.00;46642.81;5034045;28;20025;-59
2023/08/20 00:56:54;;;;;;;13.93;3.23;;;;;;;-145.18;100.00;46644.78;5034396;28;20504;-60
2023/08/20 00:59:20;;;;;;;10.03;3.07;;;;;;;-145.18;100.00;46640.88;5032442;28;20060;-60
2023/08/20 01:01:46;;;;;;;9.93;3.27;;;;;;;-145.18;100.00;46640.88;5034438;28;20044;-59
2023/08/20 01:04:11;;;;;;;9.50;3.60;;;;;;;-145.18;100.00;46642.81;5032782;28;20415;-59
2023/08/20 01:06:49;;;;;;;7.90;3.53;;;;;;;-145.18;100.00;46642.81;5033928;28;20052;-59
2023/08/20 01:09:34;;;;;;;9.40;2.87;;;;;;;-145.18;100.00;46648.69;5032031;28;20029;-60
2023/08/20 01:12:03;;;;;;;4.53;2.65;;;;;;;-145.18;100.00;46642.81;5032917;28;20072;-59
2023/08/20 01:14:28;;;;;;;10.33;3.07;;;;;;;-145.18;100.00;46646.72;5033927;28;20034;-59
2023/08/20 01:16:54;;;;;;;10.37;3.00;;;;;;;-145.18;100.00;46644.78;5033772;28;20473;-59
2023/08/20 01:19:22;;;;;;;10.77;3.23;;;;;;;-145.18;100.00;46642.81;5033334;28;20383;-59
2023/08/20 01:22:26;;;;;;;10.00;3.00;;;;;;;-145.18;100.00;46644.78;5033436;28;20037;-62
2023/08/20 01:25:10;;;;;;;7.53;2.63;;;;;;;-145.18;100.00;46642.81;5033256;28;20037;-62
2023/08/20 01:28:04;;;;;;;10.23;3.20;;;;;;;-145.18;100.00;46644.78;5030557;28;20555;-61
2023/08/20 01:30:30;;;;;;;8.90;3.10;;;;;;;-145.18;100.00;46646.72;5033240;28;20037;-62
2023/08/20 01:32:58;;;;;;;12.23;3.87;;;;;;;-145.18;100.00;46642.81;5033436;28;20061;-61
2023/08/20 01:35:26;;;;;;;12.17;2.97;;;;;;;-145.18;100.00;46648.69;5032621;28;20047;-62
2023/08/20 01:37:52;;;;;;;8.03;2.93;;;;;;;-145.18;100.00;46650.63;5033025;28;20088;-62
2023/08/20 01:40:17;;;;;;;7.43;2.50;;;;;;;-145.18;100.00;46646.72;5033356;28;20033;-61
2023/08/20 01:42:43;;;;;;;9.67;2.67;;;;;;;-145.18;100.00;46646.72;5032009;28;20034;-61
2023/08/20 01:45:08;;;;;;;11.27;2.90;;;;;;;-145.18;100.00;46646.72;5032865;28;20392;-61
2023/08/20 01:47:34;;;;;;;8.53;2.93;;;;;;;-145.18;100.00;46646.72;5033384;28;20026;-61
2023/08/20 01:50:00;;;;;;;9.23;2.30;;;;;;;-145.18;100.00;46648.69;5032921;28;20112;-61
2023/08/20 01:52:25;;;;;;;9.20;3.10;;;;;;;-145.18;100.00;46644.78;5031736;28;20071;-61
2023/08/20 01:54:51;;;;;;;7.07;2.60;;;;;;;-145.18;100.00;46646.72;5032149;28;20040;-61
2023/08/20 01:57:16;;;;;;;7.43;2.97;;;;;;;-145.18;100.00;46644.78;5033143;28;20021;-61
2023/08/20 01:59:43;;;;;;;9.13;2.73;;;;;;;-145.18;100.00;46642.81;5030072;28;20227;-61
2023/08/20 02:02:08;;;;;;;8.80;2.80;;;;;;;-145.18;100.00;46642.81;5031831;28;20030;-61
2023/08/20 02:04:33;;;;;;;8.37;3.17;;;;;;;-145.18;100.00;46648.69;5033141;28;20103;-62
2023/08/20 02:06:59;;;;;;;8.47;3.33;;;;;;;-145.18;100.00;46648.69;5032495;28;20383;-62
2023/08/20 02:09:24;;;;;;;8.97;2.90;;;;;;;-145.18;100.00;46640.88;5032628;28;20112;-61
2023/08/20 02:11:51;;;;;;;9.23;2.50;;;;;;;-145.18;100.00;46644.78;5032596;28;20450;-62
2023/08/20 02:14:16;;;;;;;11.63;3.20;;;;;;;-145.18;100.00;46638.91;5032469;28;20095;-62
2023/08/20 02:16:42;;;;;;;5.97;2.60;;;;;;;-145.18;100.00;46646.72;5032145;28;20057;-61
2023/08/20 02:19:08;;;;;;;7.50;2.97;;;;;;;-145.18;100.00;46642.81;5032354;28;20036;-61
2023/08/20 02:21:33;;;;;;;9.37;3.00;;;;;;;-145.18;100.00;46642.81;5031967;28;20025;-62
2023/08/20 02:23:59;;;;;;;9.07;3.53;;;;;;;-145.18;100.00;46638.91;5032543;28;20102;-61
2023/08/20 02:26:24;;;;;;;8.73;2.90;;;;;;;-145.18;100.00;46640.88;5030675;28;20025;-62
2023/08/20 02:28:50;;;;;;;8.10;2.73;;;;;;;-145.18;100.00;46644.78;5032428;28;20064;-62
2023/08/20 02:31:15;;;;;;;11.70;3.20;;;;;;;-145.18;100.00;46644.78;5030348;28;20148;-62
2023/08/20 02:33:41;;;;;;;7.90;3.13;;;;;;;-145.18;100.00;46676.03;5032418;28;20104;-62
2023/08/20 02:36:06;;;;;;;7.17;3.03;;;;;;;-145.18;100.00;46676.03;5032456;28;20021;-62
2023/08/20 02:38:32;;;;;;;9.17;3.33;;;;;;;-145.18;100.00;46638.91;5031827;28;20533;-62
2023/08/20 02:40:57;;;;;;;7.47;3.13;;;;;;;-145.18;100.00;46640.88;5030651;28;20057;-61
2023/08/20 02:43:23;;;;;;;7.57;2.63;;;;;;;-145.18;100.00;46642.81;5032064;28;20721;-62
2023/08/20 02:45:48;;;;;;;10.03;3.50;;;;;;;-145.18;100.00;46640.88;5031795;28;20052;-61
2023/08/20 02:48:14;;;;;;;6.27;3.27;;;;;;;-145.18;100.00;46640.88;5031445;28;21393;-62
2023/08/20 02:50:40;;;;;;;5.10;2.70;;;;;;;-145.18;100.00;46644.78;5030143;28;20029;-62
2023/08/20 02:53:05;;;;;;;8.50;3.00;;;;;;;-145.18;100.00;46642.81;5031533;28;20108;-62
2023/08/20 02:55:32;;;;;;;7.57;3.27;;;;;;;-145.18;100.00;46638.91;5032052;28;20052;-61
2023/08/20 02:57:57;;;;;;;6.13;3.30;;;;;;;-145.18;100.00;46636.94;5030290;28;20025;-61
2023/08/20 03:00:23;;;;;;;8.10;2.90;;;;;;;-145.18;100.00;46640.88;5032150;28;20087;-62
2023/08/20 03:02:48;;;;;;;8.53;2.80;;;;;;;-145.18;100.00;46640.88;5031168;28;20037;-61
2023/08/20 03:05:14;;;;;;;8.67;3.17;;;;;;;-145.18;100.00;46636.94;5031889;28;20034;-62
2023/08/20 03:07:39;;;;;;;12.60;3.20;;;;;;;-145.18;100.00;46660.41;5029341;28;20511;-62
2023/08/20 03:10:06;;;;;;;9.03;3.03;;;;;;;-145.18;100.00;46636.94;5031540;28;20039;-62
2023/08/20 03:12:31;;;;;;;12.23;3.30;;;;;;;-145.18;100.00;46636.94;5030021;28;20047;-62
2023/08/20 03:14:59;;;;;;;7.23;3.13;;;;;;;-145.18;100.00;46638.91;5031515;28;20401;-62
2023/08/20 03:17:24;;;;;;;8.50;3.10;;;;;;;-145.18;100.00;46638.91;5031670;28;20367;-62
2023/08/20 03:19:55;;;;;;;6.20;2.63;;;;;;;-145.18;100.00;46638.91;5031216;28;20041;-62
2023/08/20 03:22:21;;;;;;;8.50;2.97;;;;;;;-145.18;100.00;46642.81;5028814;28;20040;-61
2023/08/20 03:24:46;;;;;;;13.30;2.87;;;;;;;-145.18;100.00;46638.91;5031347;28;20442;-61
2023/08/20 03:27:12;;;;;;;6.47;2.93;;;;;;;-145.18;100.00;46638.91;5031410;28;20037;-61
2023/08/20 03:29:37;;;;;;;9.90;3.60;;;;;;;-145.18;100.00;46635.00;5031783;28;20482;-62
2023/08/20 03:32:03;;;;;;;8.60;2.97;;;;;;;-145.18;100.00;46638.91;5030985;28;20025;-62
2023/08/20 03:34:28;;;;;;;8.43;2.90;;;;;;;-145.18;100.00;46638.91;5031508;28;20033;-62
2023/08/20 03:36:53;;;;;;;5.73;3.10;;;;;;;-145.18;100.00;46660.41;5030605;28;20104;-62
2023/08/20 03:39:19;;;;;;;4.90;2.43;;;;;;;-145.18;100.00;46676.03;5031474;28;20059;-62
2023/08/20 03:41:45;;;;;;;9.10;3.23;;;;;;;-145.18;100.00;46660.41;5030895;28;20045;-60
2023/08/20 03:44:10;;;;;;;9.73;2.80;;;;;;;-145.18;100.00;46660.41;5031756;28;20500;-59
2023/08/20 03:46:35;;;;;;;5.73;3.30;;;;;;;-145.18;100.00;46660.41;5030516;28;20037;-59
2023/08/20 03:49:01;;;;;;;6.80;3.47;;;;;;;-145.18;100.00;46660.41;5031307;28;20025;-59
2023/08/20 03:51:26;;;;;;;13.77;3.67;;;;;;;-145.18;100.00;46636.94;5029710;28;20826;-59
2023/08/20 03:53:51;;;;;;;8.90;3.30;;;;;;;-145.18;100.00;46660.41;5030870;28;20036;-59
2023/08/20 03:56:17;;;;;;;8.70;2.93;;;;;;;-145.18;100.00;46660.41;5031229;28;20112;-59
2023/08/20 03:58:42;;;;;;;8.53;3.37;;;;;;;-145.18;100.00;46660.41;5029899;28;20029;-59
2023/08/20 04:01:07;;;;;;;16.87;3.10;;;;;;;-145.18;100.00;46660.41;5029540;28;20121;-59
2023/08/20 04:03:33;;;;;;;15.23;3.63;;;;;;;-145.18;100.00;46660.41;5030656;28;20437;-60
2023/08/20 04:05:58;;;;;;;6.10;2.63;;;;;;;-145.18;100.00;46633.06;5027048;28;20025;-59
2023/08/20 04:08:23;;;;;;;7.97;2.80;;;;;;;-145.18;100.00;46660.41;5030979;28;20061;-59
2023/08/20 04:10:49;;;;;;;5.27;3.20;;;;;;;-145.18;100.00;46636.94;5029397;28;20511;-59
2023/08/20 04:13:16;;;;;;;10.53;2.57;;;;;;;-145.18;100.00;46635.00;5031206;28;20044;-59
2023/08/20 04:15:41;;;;;;;8.30;2.80;;;;;;;-145.18;100.00;46660.41;5030722;28;20378;-59
2023/08/20 04:18:07;;;;;;;8.93;3.03;;;;;;;-145.18;100.00;46636.94;5031043;28;20083;-60
2023/08/20 04:20:32;;;;;;;6.93;2.80;;;;;;;-145.18;100.00;46660.41;5026577;28;20410;-59
2023/08/20 04:22:58;;;;;;;7.77;2.80;;;;;;;-145.18;100.00;46660.41;5027125;28;20029;-59
2023/08/20 04:25:23;;;;;;;5.40;2.90;;;;;;;-145.18;100.00;46635.00;5030297;28;20116;-59
2023/08/20 04:27:48;;;;;;;6.10;3.30;;;;;;;-145.18;100.00;46660.41;5030327;28;20113;-59
2023/08/20 04:30:14;;;;;;;11.77;3.50;;;;;;;-145.18;100.00;46660.41;5026305;28;20087;-60
2023/08/20 04:32:39;;;;;;;7.90;3.20;;;;;;;-145.18;100.00;46636.94;5030295;28;20124;-59
2023/08/20 04:35:05;;;;;;;10.50;3.40;;;;;;;-145.18;100.00;46660.41;5029840;28;20037;-59
2023/08/20 04:37:30;;;;;;;9.47;3.30;;;;;;;-145.18;100.00;46635.00;5030836;28;20073;-59
2023/08/20 04:39:56;;;;;;;9.23;3.50;;;;;;;-145.18;100.00;46636.94;5028997;28;20065;-60
2023/08/20 04:42:21;;;;;;;13.47;3.73;;;;;;;-145.18;100.00;46660.41;5030422;28;20116;-60
2023/08/20 04:44:47;;;;;;;5.03;2.77;;;;;;;-145.18;100.00;46636.94;5028506;28;20033;-59
2023/08/20 04:47:12;;;;;;;8.73;2.77;;;;;;;-145.18;100.00;46633.06;5026842;28;20037;-59
2023/08/20 04:49:38;;;;;;;7.23;2.97;;;;;;;-145.18;100.00;46633.06;5030865;28;20111;-59
2023/08/20 04:52:04;;;;;;;7.13;2.20;;;;;;;-145.18;100.00;46635.00;5030237;28;20453;-59
2023/08/20 04:54:29;;;;;;;9.93;3.20;;;;;;;-145.18;100.00;46660.41;5032485;28;20509;-59
2023/08/20 04:56:54;;;;;;;10.37;3.23;;;;;;;-145.18;100.00;46660.41;5030703;28;20672;-59
2023/08/20 04:59:20;;;;;;;7.33;2.73;;;;;;;-145.18;100.00;46660.41;5030232;28;20111;-59
2023/08/20 05:01:45;;;;;;;7.53;2.67;;;;;;;-145.18;100.00;46633.06;5033824;28;20068;-59
2023/08/20 05:04:11;;;;;;;7.77;2.47;;;;;;;-145.18;100.00;46660.41;5033597;28;20044;-59
2023/08/20 05:06:37;;;;;;;8.97;3.37;;;;;;;-145.18;100.00;46635.00;5032571;28;20068;-60
2023/08/20 05:09:03;;;;;;;4.97;2.43;;;;;;;-145.18;100.00;46636.94;5032406;28;20067;-59
2023/08/20 05:11:31;;;;;;;4.10;2.50;;;;;;;-145.18;100.00;46660.41;5033055;28;20076;-59
2023/08/20 05:13:56;;;;;;;10.10;2.83;;;;;;;-145.18;100.00;46633.06;5032855;28;20366;-59
2023/08/20 05:16:22;;;;;;;13.23;3.43;;;;;;;-145.18;100.00;46633.06;5032849;28;20075;-59
2023/08/20 05:18:47;;;;;;;8.90;3.43;;;;;;;-145.18;100.00;46660.41;5030877;28;20531;-59
2023/08/20 05:21:13;;;;;;;13.43;2.90;;;;;;;-145.18;100.00;46660.41;5033308;28;20083;-59
2023/08/20 05:23:40;;;;;;;4.63;2.90;;;;;;;-145.18;100.00;46660.41;5033426;28;20473;-59
2023/08/20 05:26:08;;;;;;;6.93;3.13;;;;;;;-145.18;100.00;46633.06;5032224;28;20103;-60
2023/08/20 05:28:34;;;;;;;7.37;3.07;;;;;;;-145.18;100.00;46660.41;5031871;28;20037;-59
2023/08/20 05:31:00;;;;;;;8.27;3.30;;;;;;;-145.18;100.00;46629.13;5033250;28;20033;-59
2023/08/20 05:33:26;;;;;;;6.70;3.03;;;;;;;-145.18;100.00;46633.06;5033564;28;20033;-60
2023/08/20 05:35:51;;;;;;;9.07;3.20;;;;;;;-145.18;100.00;46633.06;5031963;28;20037;-59
2023/08/20 05:38:17;;;;;;;4.53;3.03;;;;;;;-145.18;100.00;46635.00;5032851;28;20111;-59
2023/08/20 05:40:42;;;;;;;12.33;3.67;;;;;;;-145.18;100.00;46631.09;5033038;28;20025;-59
2023/08/20 05:43:08;;;;;;;8.00;3.37;;;;;;;-145.18;100.00;46629.13;5033421;28;20104;-60
2023/08/20 05:45:34;;;;;;;6.03;3.50;;;;;;;-145.18;100.00;46633.06;5032846;28;20507;-59
2023/08/20 05:47:59;;;;;;;13.17;4.10;;;;;;;-145.18;100.00;46635.00;5032656;28;20036;-59
2023/08/20 05:50:24;;;;;;;9.03;3.47;;;;;;;-145.18;100.00;46627.19;5030366;28;20116;-59
2023/08/20 05:52:50;;;;;;;14.00;3.87;;;;;;;-145.18;100.00;46629.13;5032798;28;20040;-59
2023/08/20 05:55:15;;;;;;;6.13;3.70;;;;;;;-145.18;100.00;46629.13;5031183;28;20390;-59
2023/08/20 05:57:42;;;;;;;8.47;3.30;;;;;;;-145.18;100.00;46631.09;5032848;28;20045;-60
2023/08/20 06:00:09;;;;;;;8.40;3.90;;;;;;;-145.18;100.00;46629.13;5030487;28;20500;-60
2023/08/20 06:02:34;;;;;;;10.53;3.70;;;;;;;-145.18;100.00;46631.09;5035039;28;20124;-60
2023/08/20 06:05:00;;;;;;;9.60;4.30;;;;;;;-145.18;100.00;46633.06;5029978;28;20029;-60
2023/08/20 06:07:25;;;;;;;11.67;3.97;;;;;;;-145.18;100.00;46631.09;5034310;28;20066;-60
2023/08/20 06:09:50;;;;;;;13.03;4.00;;;;;;;-145.18;100.00;46631.09;5030469;28;20072;-60
2023/08/20 06:12:17;;;;;;;10.93;4.33;;;;;;;-145.18;100.00;46633.06;5030354;28;20378;-60
2023/08/20 06:14:42;;;;;;;10.73;4.33;;;;;;;-145.18;100.00;46635.00;5030412;28;20402;-60
2023/08/20 06:17:08;;;;;;;12.77;4.30;;;;;;;-145.18;100.00;46631.09;5030714;28;20041;-60
2023/08/20 06:19:34;;;;;;;9.07;4.23;;;;;;;-145.18;100.00;46635.00;5033686;28;20472;-60
2023/08/20 06:21:59;;;;;;;13.37;3.90;;;;;;;-145.18;100.00;46633.06;5032555;28;20035;-60
2023/08/20 06:24:25;;;;;;;7.40;3.40;;;;;;;-145.18;100.00;46635.00;5033045;28;20104;-60
2023/08/20 06:26:51;;;;;;;8.53;4.30;;;;;;;-145.18;100.00;46640.88;5031485;28;20026;-60
2023/08/20 06:29:17;;;;;;;13.20;3.50;;;;;;;-145.18;100.00;46635.00;5030222;28;20056;-60
2023/08/20 06:31:44;;;;;;;14.57;4.97;;;;;;;-145.18;100.00;46635.00;5031765;28;20460;-60
2023/08/20 06:34:09;;;;;;;6.63;3.33;;;;;;;-145.18;100.00;46640.88;5027279;28;20072;-60
2023/08/20 06:36:35;;;;;;;8.07;3.40;;;;;;;-145.18;100.00;46636.94;5033834;28;20030;-60
2023/08/20 06:39:00;;;;;;;11.50;3.77;;;;;;;-145.18;100.00;46638.91;5032503;28;20065;-60
2023/08/20 06:41:26;;;;;;;9.43;3.40;;;;;;;-145.18;100.00;46636.94;5028059;28;20463;-60
2023/08/20 06:43:51;;;;;;;9.90;3.40;;;;;;;-145.18;100.00;46638.91;5031234;28;20041;-60
2023/08/20 06:46:16;;;;;;;6.63;3.13;;;;;;;-145.18;100.00;46640.88;5026870;28;20041;-60
2023/08/20 06:48:42;;;;;;;7.00;3.37;;;;;;;-145.18;100.00;46642.81;5030334;28;20107;-60
2023/08/20 06:51:15;;;;;;;10.37;4.10;;;;;;;-145.18;100.00;46640.88;5030516;28;20034;-60
2023/08/20 06:53:41;;;;;;;7.13;3.23;;;;;;;-145.18;100.00;46644.78;5031874;28;20485;-60
2023/08/20 06:56:08;;;;;;;12.13;3.30;;;;;;;-145.18;100.00;46642.81;5031038;28;20032;-60
2023/08/20 06:58:34;;;;;;;10.47;2.70;;;;;;;-145.18;100.00;46650.63;5032389;28;20063;-60
2023/08/20 07:01:06;;;;;;;12.13;2.80;;;;;;;-145.18;100.00;46650.63;5031945;28;20497;-60
2023/08/20 07:03:33;;;;;;;8.67;3.10;;;;;;;-145.18;100.00;46646.72;5030071;28;20037;-60
2023/08/20 07:05:59;;;;;;;7.63;3.63;;;;;;;-145.18;100.00;46648.69;5029551;28;20052;-60
2023/08/20 07:08:24;;;;;;;11.13;3.07;;;;;;;-145.18;100.00;46644.78;5031113;28;20037;-60
2023/08/20 07:10:50;;;;;;;9.67;2.80;;;;;;;-145.18;100.00;46652.59;5028725;28;20116;-60
2023/08/20 07:13:15;;;;;;;10.90;2.90;;;;;;;-145.18;100.00;46652.59;5030403;28;20099;-62
2023/08/20 07:15:40;;;;;;;12.40;3.40;;;;;;;-145.18;100.00;46656.50;5031497;28;20041;-62
2023/08/20 07:18:06;;;;;;;7.27;2.43;;;;;;;-145.18;100.00;46652.59;5031253;28;20034;-62
2023/08/20 07:20:31;;;;;;;13.27;2.90;;;;;;;-145.18;100.00;46656.50;5030741;28;20072;-62
2023/08/20 07:22:57;;;;;;;8.60;2.50;;;;;;;-145.18;100.00;46660.41;5031181;28;20541;-62
2023/08/20 07:25:22;;;;;;;7.83;2.20;;;;;;;-145.18;100.00;46658.44;5029453;28;20060;-62
2023/08/20 07:27:47;;;;;;;8.07;2.10;;;;;;;-145.18;100.00;46656.50;5029369;28;20035;-62
2023/08/20 07:30:13;;;;;;;7.03;1.60;;;;;;;-145.18;100.00;46668.22;5027250;28;20461;-62
2023/08/20 07:32:38;;;;;;;10.37;2.40;;;;;;;-145.18;100.00;46660.41;5029364;28;20499;-62
2023/08/20 07:35:04;;;;;;;6.33;1.80;;;;;;;-145.18;100.00;46662.34;5030438;28;20037;-62
2023/08/20 07:37:29;;;;;;;8.73;2.00;;;;;;;-145.18;100.00;46664.31;5031091;28;20473;-62
2023/08/20 07:39:55;;;;;;;10.77;1.83;;;;;;;-145.18;100.00;46660.41;5029845;28;20049;-62
2023/08/20 07:42:20;;;;;;;7.90;2.50;;;;;;;-145.18;100.00;46656.50;5027691;28;20504;-62
2023/08/20 07:44:45;;;;;;;6.37;2.03;;;;;;;-145.18;100.00;46668.22;5033292;28;20116;-62
2023/08/20 07:47:11;;;;;;;8.23;2.67;;;;;;;-145.18;100.00;46662.34;5030479;28;20037;-62
2023/08/20 07:49:36;;;;;;;9.50;2.07;;;;;;;-145.18;100.00;46664.31;5029163;28;20045;-62
2023/08/20 07:52:02;;;;;;;8.70;2.00;;;;;;;-145.18;100.00;46670.16;5031436;28;20053;-62
2023/08/20 07:54:28;;;;;;;5.00;1.57;;;;;;;-145.18;100.00;46666.25;5030832;28;20132;-62
2023/08/20 07:56:54;;;;;;;4.90;1.60;;;;;;;-145.18;100.00;46668.22;5029416;28;20056;-62
2023/08/20 07:59:19;;;;;;;6.83;1.90;;;;;;;-145.18;100.00;46672.13;5031109;28;20450;-62
2023/08/20 08:01:44;;;;;;;7.17;2.13;;;;;;;-145.18;100.00;46672.13;5030372;28;20082;-62
2023/08/20 08:04:10;;;;;;;7.07;1.80;;;;;;;-145.18;100.00;46672.13;5030488;28;20041;-62
2023/08/20 08:06:35;;;;;;;8.33;2.37;;;;;;;-145.18;100.00;46668.22;5028185;28;20497;-62
2023/08/20 08:09:27;;;;;;;6.33;1.83;;;;;;;-145.18;100.00;46668.22;5029408;28;20090;-62
2023/08/20 08:11:53;;;;;;;9.07;2.40;;;;;;;-145.18;100.00;46672.13;5030676;28;20397;-62
2023/08/20 08:14:18;;;;;;;12.23;2.37;;;;;;;-145.18;100.00;46668.22;5030415;28;20091;-62
2023/08/20 08:16:45;;;;;;;7.30;2.50;;;;;;;-145.18;100.00;46666.25;5029691;28;20030;-62
2023/08/20 08:19:11;;;;;;;14.27;3.03;;;;;;;-145.18;100.00;46670.16;5030531;28;20079;-62
2023/08/20 08:21:36;;;;;;;6.13;3.03;;;;;;;-145.18;100.00;46668.22;5030466;28;20033;-62
2023/08/20 08:24:02;;;;;;;7.87;3.17;;;;;;;-145.18;100.00;46666.25;5030448;28;20109;-62
2023/08/20 08:26:28;;;;;;;12.03;3.57;;;;;;;-145.18;100.00;46672.13;5029207;28;20037;-62
2023/08/20 08:28:53;;;;;;;7.47;2.60;;;;;;;-145.18;100.00;46670.16;5032191;28;20111;-62
2023/08/20 08:31:19;;;;;;;4.83;1.90;;;;;;;-145.18;100.00;46679.94;5033202;28;20493;-62
2023/08/20 08:33:44;;;;;;;6.23;2.53;;;;;;;-145.18;100.00;46676.03;5033874;28;20417;-62
2023/08/20 08:36:11;;;;;;;4.33;2.20;;;;;;;-145.18;100.00;46681.88;5034374;28;20033;-62
2023/08/20 08:38:36;;;;;;;7.37;2.30;;;;;;;-145.18;100.00;46679.94;5034092;28;20049;-62
2023/08/20 08:41:03;;;;;;;9.07;2.30;;;;;;;-145.18;100.00;46677.97;5033907;28;20382;-62
2023/08/20 08:43:31;;;;;;;8.77;2.30;;;;;;;-145.18;100.00;46681.88;5033427;28;20037;-62
2023/08/20 08:45:57;;;;;;;6.37;2.20;;;;;;;-145.18;100.00;46685.78;5034367;28;20033;-62
2023/08/20 08:48:23;;;;;;;7.13;2.70;;;;;;;-145.18;100.00;46681.88;5034028;28;20103;-62
2023/08/20 08:50:51;;;;;;;8.47;2.20;;;;;;;-145.18;100.00;46677.97;5033985;28;20033;-62
2023/08/20 08:53:17;;;;;;;11.83;2.70;;;;;;;-145.18;100.00;46683.84;5033652;28;20041;-62
2023/08/20 08:55:42;;;;;;;5.03;2.87;;;;;;;-145.18;100.00;46683.84;5033768;28;20056;-62
2023/08/20 08:58:08;;;;;;;6.50;2.53;;;;;;;-145.18;100.00;46683.84;5033904;28;20029;-62
2023/08/20 09:00:33;;;;;;;4.23;1.83;;;;;;;-145.18;100.00;46681.88;5033579;28;20116;-62
2023/08/20 09:02:59;;;;;;;11.43;2.43;;;;;;;-145.18;100.00;46681.88;5033739;28;20059;-62
2023/08/20 09:05:25;;;;;;;5.60;2.27;;;;;;;-145.18;100.00;46683.84;5033616;28;20392;-62
2023/08/20 09:07:57;;;;;;;5.33;1.60;;;;;;;-145.18;100.00;46681.88;5033179;28;20092;-62
2023/08/20 09:10:26;;;;;;;6.97;2.10;;;;;;;-145.18;100.00;46683.84;5031480;28;20088;-62
2023/08/20 09:12:55;;;;;;;6.10;1.90;;;;;;;-145.18;100.00;46679.94;5033549;28;20048;-62
2023/08/20 09:15:21;;;;;;;10.07;2.10;;;;;;;-145.18;100.00;46685.78;5034122;28;20037;-62
2023/08/20 09:17:46;;;;;;;8.17;2.00;;;;;;;-145.18;100.00;46660.41;5033471;28;20497;-62
2023/08/20 09:20:12;;;;;;;7.37;1.63;;;;;;;-145.18;100.00;46601.78;5031101;28;20021;-62
2023/08/20 09:22:37;;;;;;;4.70;1.23;;;;;;;-145.18;100.00;46554.91;5033178;28;20148;-62
2023/08/20 09:25:03;;;;;;;5.90;1.87;;;;;;;-145.18;100.00;46582.25;5033165;28;20025;-62
2023/08/20 09:27:29;;;;;;;4.13;1.70;;;;;;;-145.18;100.00;46558.81;5032860;28;20021;-62
2023/08/20 09:29:57;;;;;;;6.03;1.40;;;;;;;-145.18;100.00;46556.88;5032444;28;20044;-62
2023/08/20 09:32:25;;;;;;;4.23;1.57;;;;;;;-145.18;100.00;46551.00;5032336;28;20112;-62
2023/08/20 09:34:52;;;;;;;4.87;1.47;;;;;;;-145.18;100.00;46558.81;5032743;28;20055;-62
2023/08/20 09:37:20;;;;;;;3.97;0.97;;;;;;;-145.18;100.00;46562.72;5029944;28;20040;-62
2023/08/20 09:39:46;;;;;;;8.30;1.50;;;;;;;-145.18;100.00;46560.78;5029520;28;20061;-62
2023/08/20 09:42:12;;;;;;;5.90;1.33;;;;;;;-145.18;100.00;46560.78;4996062;28;20032;-62
2023/08/20 09:44:40;;;;;;;7.07;1.30;;;;;;;-145.18;100.00;46566.63;5031048;28;20030;-62
2023/08/20 09:47:08;;;;;;;3.00;1.10;;;;;;;-145.18;100.00;46558.81;5032743;28;20417;-62
2023/08/20 09:49:38;;;;;;;6.60;1.13;;;;;;;-145.18;100.00;46560.78;5030900;28;20025;-62
2023/08/20 09:52:11;;;;;;;3.67;1.27;;;;;;;-145.18;100.00;46564.69;5033469;28;20029;-62
2023/08/20 09:54:47;;;;;;;3.13;1.20;;;;;;;-145.18;100.00;46547.09;5030729;28;20026;-62
2023/08/20 09:57:38;;;;;;;5.83;1.43;;;;;;;-145.18;100.00;46552.97;5032887;28;20029;-62
2023/08/20 10:00:09;;;;;;;7.53;1.27;;;;;;;-145.18;100.00;46533.44;5031842;28;20124;-62
2023/08/20 10:02:35;;;;;;;4.57;1.40;;;;;;;-145.18;100.00;46574.44;5032445;28;20029;-62
2023/08/20 10:05:02;;;;;;;8.57;1.33;;;;;;;-145.18;100.00;46580.31;5032063;28;20036;-62
2023/08/20 10:07:32;;;;;;;4.90;1.15;;;;;;;-145.18;100.00;46578.34;5032813;28;20087;-62
2023/08/20 10:10:00;;;;;;;2.58;0.90;;;;;;;-145.18;100.00;46574.44;5027767;28;20025;-62
2023/08/20 10:12:27;;;;;;;5.93;0.95;;;;;;;-145.18;100.00;47156.56;5032174;28;20033;-62
2023/08/20 10:14:53;;;;;;;4.18;0.85;;;;;;;-145.18;100.00;47117.50;5032305;28;20098;-62
2023/08/20 10:17:18;;;;;;;2.17;0.90;;;;;;;-145.18;100.00;47150.72;5029744;28;20033;-62
2023/08/20 10:19:44;;;;;;;5.38;1.10;;;;;;;-145.18;100.00;46910.44;5031841;28;20034;-62
2023/08/20 10:22:10;;;;;;;3.33;1.27;;;;;;;-145.18;100.00;46617.41;5030746;28;20041;-62
2023/08/20 10:24:56;;;;;;;4.22;1.05;;;;;;;-145.18;100.00;46636.94;5032173;28;20497;-61
2023/08/20 10:27:31;;;;;;;7.97;1.40;;;;;;;-145.18;100.00;46627.19;5032284;28;20118;-62
2023/08/20 10:30:07;;;;;;;4.38;1.15;;;;;;;-145.18;100.00;46588.13;5031684;28;20037;-62
2023/08/20 10:32:49;;;;;;;4.72;1.25;;;;;;;-145.18;100.00;47135.09;5028087;28;20022;-62
2023/08/20 10:35:16;;;;;;;4.40;1.20;;;;;;;-145.18;100.00;47135.09;5030226;28;20033;-62
2023/08/20 10:38:00;;;;;;;6.32;1.10;;;;;;;-145.18;100.00;46980.75;5030808;28;20389;-62
2023/08/20 10:40:51;;;;;;;5.72;1.20;;;;;;;-145.18;100.00;47133.13;5030883;28;20038;-62
2023/08/20 10:43:25;;;;;;;5.95;1.10;;;;;;;-145.18;100.00;47056.94;5032054;28;20040;-62
2023/08/20 10:46:07;;;;;;;3.17;0.80;;;;;;;-145.18;100.00;47029.59;5031659;28;20021;-62
2023/08/20 10:48:36;;;;;;;2.97;1.20;;;;;;;-145.18;100.00;47023.72;5031041;28;20394;-62
2023/08/20 10:51:23;;;;;;;1.73;1.00;;;;;;;-145.18;100.00;47051.09;5029444;28;20041;-62
2023/08/20 10:54:05;;;;;;;3.97;1.17;;;;;;;-145.18;100.00;47045.22;5030574;28;20481;-62
2023/08/20 10:56:47;;;;;;;5.50;0.98;;;;;;;-145.18;100.00;47109.69;5031131;28;20025;-62
2023/08/20 10:59:16;;;;;;;2.78;0.98;;;;;;;-145.18;100.00;47064.75;5031631;28;20064;-62
2023/08/20 11:01:46;;;;;;;3.67;0.88;;;;;;;-145.18;100.00;47055.00;5029473;28;20033;-62
2023/08/20 11:04:15;;;;;;;3.22;0.82;;;;;;;-145.18;100.00;47027.63;5031294;28;20033;-62
2023/08/20 11:06:41;;;;;;;3.97;1.00;;;;;;;-145.18;100.00;47015.91;5028920;28;20037;-62